sensor_id;sensor_type;location;lat;lon;timestamp;P1;durP1;ratioP1;P2;durP2;ratioP2
13981;SDS011;7065;50.880;5.502;2023-08-30T00:00:36;15.82;;;14.23;;
13981;SDS011;7065;50.880;5.502;2023-08-30T00:03:02;18.02;;;16.35;;
13981;SDS011;7065;50.880;5.502;2023-08-30T00:05:28;18.58;;;16.77;;
13981;SDS011;7065;50.880;5.502;2023-08-30T00:07:54;19.30;;;17.40;;
13981;SDS011;7065;50.880;5.502;2023-08-30T00:10:20;20.98;;;18.98;;
13981;SDS011;7065;50.880;5.502;2023-08-30T00:12:46;20.42;;;18.45;;
13981;SDS011;7065;50.880;5.502;2023-08-30T00:15:11;22.50;;;20.13;;
13981;SDS011;7065;50.880;5.502;2023-08-30T00:17:38;23.20;;;20.85;;
13981;SDS011;7065;50.880;5.502;2023-08-30T00:20:04;25.20;;;21.92;;
13981;SDS011;7065;50.880;5.502;2023-08-30T00:22:31;25.27;;;22.25;;
13981;SDS011;7065;50.880;5.502;2023-08-30T00:24:58;25.02;;;22.23;;
13981;SDS011;7065;50.880;5.502;2023-08-30T00:27:25;25.83;;;23.05;;
13981;SDS011;7065;50.880;5.502;2023-08-30T00:29:50;28.45;;;24.08;;
13981;SDS011;7065;50.880;5.502;2023-08-30T00:32:16;27.80;;;24.08;;
13981;SDS011;7065;50.880;5.502;2023-08-30T00:34:42;30.17;;;26.95;;
13981;SDS011;7065;50.880;5.502;2023-08-30T00:37:08;28.95;;;25.77;;
13981;SDS011;7065;50.880;5.502;2023-08-30T00:39:34;30.55;;;26.40;;
13981;SDS011;7065;50.880;5.502;2023-08-30T00:42:03;28.58;;;25.48;;
13981;SDS011;7065;50.880;5.502;2023-08-30T00:44:31;30.27;;;25.67;;
13981;SDS011;7065;50.880;5.502;2023-08-30T00:46:57;35.90;;;27.60;;
13981;SDS011;7065;50.880;5.502;2023-08-30T00:49:24;32.00;;;26.27;;
13981;SDS011;7065;50.880;5.502;2023-08-30T00:51:49;34.50;;;26.05;;
13981;SDS011;7065;50.880;5.502;2023-08-30T00:54:16;31.65;;;24.98;;
13981;SDS011;7065;50.880;5.502;2023-08-30T00:56:42;31.70;;;26.63;;
13981;SDS011;7065;50.880;5.502;2023-08-30T00:59:09;29.30;;;26.20;;
13981;SDS011;7065;50.880;5.502;2023-08-30T01:01:35;26.52;;;23.75;;
13981;SDS011;7065;50.880;5.502;2023-08-30T01:04:01;29.98;;;23.98;;
13981;SDS011;7065;50.880;5.502;2023-08-30T01:06:27;27.20;;;24.42;;
13981;SDS011;7065;50.880;5.502;2023-08-30T01:08:53;28.73;;;25.20;;
13981;SDS011;7065;50.880;5.502;2023-08-30T01:11:21;29.65;;;24.58;;
13981;SDS011;7065;50.880;5.502;2023-08-30T01:14:03;27.90;;;24.48;;
13981;SDS011;7065;50.880;5.502;2023-08-30T01:16:37;28.10;;;25.10;;
13981;SDS011;7065;50.880;5.502;2023-08-30T01:19:14;27.20;;;24.30;;
13981;SDS011;7065;50.880;5.502;2023-08-30T01:21:58;26.17;;;23.35;;
13981;SDS011;7065;50.880;5.502;2023-08-30T01:24:40;25.95;;;23.15;;
13981;SDS011;7065;50.880;5.502;2023-08-30T01:27:11;26.55;;;23.85;;
13981;SDS011;7065;50.880;5.502;2023-08-30T01:29:39;25.98;;;23.45;;
13981;SDS011;7065;50.880;5.502;2023-08-30T01:32:08;27.80;;;23.42;;
13981;SDS011;7065;50.880;5.502;2023-08-30T01:34:38;27.35;;;24.00;;
13981;SDS011;7065;50.880;5.502;2023-08-30T01:37:06;25.98;;;23.23;;
13981;SDS011;7065;50.880;5.502;2023-08-30T01:39:36;25.30;;;22.60;;
13981;SDS011;7065;50.880;5.502;2023-08-30T01:42:02;26.05;;;22.95;;
13981;SDS011;7065;50.880;5.502;2023-08-30T01:44:30;25.13;;;22.45;;
13981;SDS011;7065;50.880;5.502;2023-08-30T01:46:56;23.67;;;21.35;;
13981;SDS011;7065;50.880;5.502;2023-08-30T01:49:23;25.33;;;22.65;;
13981;SDS011;7065;50.880;5.502;2023-08-30T01:51:50;26.83;;;23.45;;
13981;SDS011;7065;50.880;5.502;2023-08-30T01:54:17;23.38;;;20.98;;
13981;SDS011;7065;50.880;5.502;2023-08-30T01:56:44;23.23;;;20.88;;
13981;SDS011;7065;50.880;5.502;2023-08-30T01:59:11;25.92;;;23.20;;
13981;SDS011;7065;50.880;5.502;2023-08-30T02:01:37;22.63;;;20.35;;
13981;SDS011;7065;50.880;5.502;2023-08-30T02:04:03;25.38;;;22.67;;
13981;SDS011;7065;50.880;5.502;2023-08-30T02:06:34;23.98;;;21.55;;
13981;SDS011;7065;50.880;5.502;2023-08-30T02:09:09;24.42;;;21.92;;
13981;SDS011;7065;50.880;5.502;2023-08-30T02:11:44;25.08;;;22.63;;
13981;SDS011;7065;50.880;5.502;2023-08-30T02:14:11;25.77;;;22.88;;
13981;SDS011;7065;50.880;5.502;2023-08-30T02:16:42;23.38;;;21.33;;
13981;SDS011;7065;50.880;5.502;2023-08-30T02:19:09;25.08;;;22.52;;
13981;SDS011;7065;50.880;5.502;2023-08-30T02:21:37;24.48;;;22.08;;
13981;SDS011;7065;50.880;5.502;2023-08-30T02:24:05;24.77;;;22.00;;
13981;SDS011;7065;50.880;5.502;2023-08-30T02:26:31;24.00;;;21.40;;
13981;SDS011;7065;50.880;5.502;2023-08-30T02:28:57;25.73;;;22.58;;
13981;SDS011;7065;50.880;5.502;2023-08-30T02:31:22;24.73;;;22.38;;
13981;SDS011;7065;50.880;5.502;2023-08-30T02:33:48;23.38;;;20.88;;
13981;SDS011;7065;50.880;5.502;2023-08-30T02:36:14;25.25;;;22.55;;
13981;SDS011;7065;50.880;5.502;2023-08-30T02:38:40;23.30;;;20.90;;
13981;SDS011;7065;50.880;5.502;2023-08-30T02:41:05;25.10;;;22.40;;
13981;SDS011;7065;50.880;5.502;2023-08-30T02:43:31;25.48;;;22.77;;
13981;SDS011;7065;50.880;5.502;2023-08-30T02:45:57;23.58;;;21.30;;
13981;SDS011;7065;50.880;5.502;2023-08-30T02:48:23;23.25;;;20.95;;
13981;SDS011;7065;50.880;5.502;2023-08-30T02:50:49;23.63;;;21.23;;
13981;SDS011;7065;50.880;5.502;2023-08-30T02:53:15;24.95;;;22.42;;
13981;SDS011;7065;50.880;5.502;2023-08-30T02:55:40;24.98;;;22.35;;
13981;SDS011;7065;50.880;5.502;2023-08-30T02:58:06;25.55;;;22.85;;
13981;SDS011;7065;50.880;5.502;2023-08-30T03:00:31;23.52;;;21.15;;
13981;SDS011;7065;50.880;5.502;2023-08-30T03:02:59;23.65;;;21.25;;
13981;SDS011;7065;50.880;5.502;2023-08-30T03:05:25;24.45;;;22.02;;
13981;SDS011;7065;50.880;5.502;2023-08-30T03:07:52;25.33;;;22.88;;
13981;SDS011;7065;50.880;5.502;2023-08-30T03:10:18;26.85;;;24.17;;
13981;SDS011;7065;50.880;5.502;2023-08-30T03:12:44;27.15;;;24.23;;
13981;SDS011;7065;50.880;5.502;2023-08-30T03:15:10;27.10;;;24.33;;
13981;SDS011;7065;50.880;5.502;2023-08-30T03:17:36;25.60;;;23.00;;
13981;SDS011;7065;50.880;5.502;2023-08-30T03:20:02;27.90;;;25.10;;
13981;SDS011;7065;50.880;5.502;2023-08-30T03:22:29;28.48;;;25.65;;
13981;SDS011;7065;50.880;5.502;2023-08-30T03:24:56;29.13;;;25.92;;
13981;SDS011;7065;50.880;5.502;2023-08-30T03:27:21;28.17;;;25.35;;
13981;SDS011;7065;50.880;5.502;2023-08-30T03:29:47;27.23;;;24.52;;
13981;SDS011;7065;50.880;5.502;2023-08-30T03:32:16;27.02;;;24.23;;
13981;SDS011;7065;50.880;5.502;2023-08-30T03:34:45;26.73;;;23.92;;
13981;SDS011;7065;50.880;5.502;2023-08-30T03:37:11;28.30;;;25.58;;
13981;SDS011;7065;50.880;5.502;2023-08-30T03:39:38;27.70;;;24.80;;
13981;SDS011;7065;50.880;5.502;2023-08-30T03:42:03;28.27;;;25.20;;
13981;SDS011;7065;50.880;5.502;2023-08-30T03:44:29;27.20;;;24.40;;
13981;SDS011;7065;50.880;5.502;2023-08-30T03:46:55;28.08;;;25.15;;
13981;SDS011;7065;50.880;5.502;2023-08-30T03:49:21;28.58;;;25.67;;
13981;SDS011;7065;50.880;5.502;2023-08-30T03:51:47;28.83;;;25.95;;
13981;SDS011;7065;50.880;5.502;2023-08-30T03:54:13;28.48;;;25.40;;
13981;SDS011;7065;50.880;5.502;2023-08-30T03:56:42;30.17;;;26.42;;
13981;SDS011;7065;50.880;5.502;2023-08-30T03:59:08;28.20;;;25.17;;
13981;SDS011;7065;50.880;5.502;2023-08-30T04:01:34;28.10;;;25.30;;
13981;SDS011;7065;50.880;5.502;2023-08-30T04:04:00;26.95;;;23.75;;
13981;SDS011;7065;50.880;5.502;2023-08-30T04:06:25;27.17;;;24.52;;
13981;SDS011;7065;50.880;5.502;2023-08-30T04:08:52;25.60;;;23.13;;
13981;SDS011;7065;50.880;5.502;2023-08-30T04:11:19;28.70;;;25.80;;
13981;SDS011;7065;50.880;5.502;2023-08-30T04:13:45;28.50;;;25.27;;
13981;SDS011;7065;50.880;5.502;2023-08-30T04:16:11;29.38;;;25.60;;
13981;SDS011;7065;50.880;5.502;2023-08-30T04:18:36;29.50;;;26.40;;
13981;SDS011;7065;50.880;5.502;2023-08-30T04:21:02;28.27;;;25.38;;
13981;SDS011;7065;50.880;5.502;2023-08-30T04:23:28;26.92;;;24.25;;
13981;SDS011;7065;50.880;5.502;2023-08-30T04:25:54;27.58;;;24.35;;
13981;SDS011;7065;50.880;5.502;2023-08-30T04:28:20;26.48;;;23.88;;
13981;SDS011;7065;50.880;5.502;2023-08-30T04:30:46;30.80;;;27.60;;
13981;SDS011;7065;50.880;5.502;2023-08-30T04:33:12;30.20;;;27.20;;
13981;SDS011;7065;50.880;5.502;2023-08-30T04:35:38;28.60;;;25.73;;
13981;SDS011;7065;50.880;5.502;2023-08-30T04:38:04;28.50;;;25.58;;
13981;SDS011;7065;50.880;5.502;2023-08-30T04:40:30;28.52;;;25.60;;
13981;SDS011;7065;50.880;5.502;2023-08-30T04:43:00;27.38;;;24.58;;
13981;SDS011;7065;50.880;5.502;2023-08-30T04:45:25;27.48;;;24.60;;
13981;SDS011;7065;50.880;5.502;2023-08-30T04:47:52;26.25;;;23.17;;
13981;SDS011;7065;50.880;5.502;2023-08-30T04:50:19;26.77;;;24.05;;
13981;SDS011;7065;50.880;5.502;2023-08-30T04:52:45;25.15;;;22.73;;
13981;SDS011;7065;50.880;5.502;2023-08-30T04:55:10;26.63;;;23.90;;
13981;SDS011;7065;50.880;5.502;2023-08-30T04:57:36;25.83;;;23.23;;
13981;SDS011;7065;50.880;5.502;2023-08-30T05:00:02;25.90;;;23.10;;
13981;SDS011;7065;50.880;5.502;2023-08-30T05:02:30;26.80;;;24.02;;
13981;SDS011;7065;50.880;5.502;2023-08-30T05:04:56;27.90;;;25.00;;
13981;SDS011;7065;50.880;5.502;2023-08-30T05:07:21;27.77;;;24.98;;
13981;SDS011;7065;50.880;5.502;2023-08-30T05:09:47;27.23;;;24.35;;
13981;SDS011;7065;50.880;5.502;2023-08-30T05:12:13;26.98;;;24.10;;
13981;SDS011;7065;50.880;5.502;2023-08-30T05:14:38;26.23;;;23.58;;
13981;SDS011;7065;50.880;5.502;2023-08-30T05:17:06;25.70;;;22.98;;
13981;SDS011;7065;50.880;5.502;2023-08-30T05:19:32;25.52;;;23.00;;
13981;SDS011;7065;50.880;5.502;2023-08-30T05:21:58;24.35;;;22.05;;
13981;SDS011;7065;50.880;5.502;2023-08-30T05:24:23;25.27;;;22.73;;
13981;SDS011;7065;50.880;5.502;2023-08-30T05:26:51;23.75;;;21.30;;
13981;SDS011;7065;50.880;5.502;2023-08-30T05:29:17;23.42;;;21.13;;
13981;SDS011;7065;50.880;5.502;2023-08-30T05:31:43;21.95;;;19.73;;
13981;SDS011;7065;50.880;5.502;2023-08-30T05:34:09;21.38;;;19.15;;
13981;SDS011;7065;50.880;5.502;2023-08-30T05:36:36;20.65;;;18.55;;
13981;SDS011;7065;50.880;5.502;2023-08-30T05:39:02;20.92;;;18.70;;
13981;SDS011;7065;50.880;5.502;2023-08-30T05:41:28;19.13;;;17.27;;
13981;SDS011;7065;50.880;5.502;2023-08-30T05:43:54;20.52;;;18.23;;
13981;SDS011;7065;50.880;5.502;2023-08-30T05:46:20;19.70;;;17.15;;
13981;SDS011;7065;50.880;5.502;2023-08-30T05:48:46;18.52;;;16.60;;
13981;SDS011;7065;50.880;5.502;2023-08-30T05:51:11;18.23;;;16.33;;
13981;SDS011;7065;50.880;5.502;2023-08-30T05:53:37;16.92;;;15.23;;
13981;SDS011;7065;50.880;5.502;2023-08-30T05:56:03;15.43;;;13.93;;
13981;SDS011;7065;50.880;5.502;2023-08-30T05:58:29;17.02;;;14.82;;
13981;SDS011;7065;50.880;5.502;2023-08-30T06:00:56;16.15;;;14.55;;
13981;SDS011;7065;50.880;5.502;2023-08-30T06:03:22;14.73;;;13.15;;
13981;SDS011;7065;50.880;5.502;2023-08-30T06:05:47;14.00;;;12.70;;
13981;SDS011;7065;50.880;5.502;2023-08-30T06:08:14;13.30;;;12.02;;
13981;SDS011;7065;50.880;5.502;2023-08-30T06:10:40;13.30;;;11.82;;
13981;SDS011;7065;50.880;5.502;2023-08-30T06:13:06;13.25;;;11.13;;
13981;SDS011;7065;50.880;5.502;2023-08-30T06:15:31;12.35;;;11.15;;
13981;SDS011;7065;50.880;5.502;2023-08-30T06:17:58;10.70;;;9.35;;
13981;SDS011;7065;50.880;5.502;2023-08-30T06:20:24;10.88;;;9.68;;
13981;SDS011;7065;50.880;5.502;2023-08-30T06:22:49;11.85;;;9.70;;
13981;SDS011;7065;50.880;5.502;2023-08-30T06:25:15;10.00;;;9.10;;
13981;SDS011;7065;50.880;5.502;2023-08-30T06:27:42;10.43;;;9.32;;
13981;SDS011;7065;50.880;5.502;2023-08-30T06:30:09;9.80;;;8.90;;
13981;SDS011;7065;50.880;5.502;2023-08-30T06:32:36;10.18;;;8.80;;
13981;SDS011;7065;50.880;5.502;2023-08-30T06:35:01;11.63;;;8.80;;
13981;SDS011;7065;50.880;5.502;2023-08-30T06:37:28;11.63;;;8.48;;
13981;SDS011;7065;50.880;5.502;2023-08-30T06:39:54;10.40;;;7.82;;
13981;SDS011;7065;50.880;5.502;2023-08-30T06:42:20;12.23;;;9.57;;
13981;SDS011;7065;50.880;5.502;2023-08-30T06:44:46;12.52;;;9.90;;
13981;SDS011;7065;50.880;5.502;2023-08-30T06:47:11;10.50;;;8.63;;
13981;SDS011;7065;50.880;5.502;2023-08-30T06:49:37;9.10;;;8.30;;
13981;SDS011;7065;50.880;5.502;2023-08-30T06:52:03;9.75;;;8.75;;
13981;SDS011;7065;50.880;5.502;2023-08-30T06:54:32;8.93;;;8.13;;
13981;SDS011;7065;50.880;5.502;2023-08-30T06:57:00;7.38;;;6.68;;
13981;SDS011;7065;50.880;5.502;2023-08-30T06:59:29;7.75;;;7.05;;
13981;SDS011;7065;50.880;5.502;2023-08-30T07:01:55;8.85;;;6.55;;
13981;SDS011;7065;50.880;5.502;2023-08-30T07:04:21;6.93;;;6.22;;
13981;SDS011;7065;50.880;5.502;2023-08-30T07:06:46;8.40;;;6.32;;
13981;SDS011;7065;50.880;5.502;2023-08-30T07:09:12;6.05;;;5.35;;
13981;SDS011;7065;50.880;5.502;2023-08-30T07:11:39;8.90;;;6.10;;
13981;SDS011;7065;50.880;5.502;2023-08-30T07:14:06;7.20;;;6.47;;
13981;SDS011;7065;50.880;5.502;2023-08-30T07:16:32;8.32;;;6.63;;
13981;SDS011;7065;50.880;5.502;2023-08-30T07:18:58;6.85;;;6.25;;
13981;SDS011;7065;50.880;5.502;2023-08-30T07:21:23;6.55;;;5.95;;
13981;SDS011;7065;50.880;5.502;2023-08-30T07:23:49;6.68;;;5.90;;
13981;SDS011;7065;50.880;5.502;2023-08-30T07:26:15;9.55;;;6.10;;
13981;SDS011;7065;50.880;5.502;2023-08-30T07:28:41;6.50;;;5.88;;
13981;SDS011;7065;50.880;5.502;2023-08-30T07:31:07;5.53;;;5.00;;
13981;SDS011;7065;50.880;5.502;2023-08-30T07:33:32;5.70;;;5.00;;
13981;SDS011;7065;50.880;5.502;2023-08-30T07:35:58;6.22;;;5.25;;
13981;SDS011;7065;50.880;5.502;2023-08-30T07:38:24;5.63;;;5.00;;
13981;SDS011;7065;50.880;5.502;2023-08-30T07:40:50;5.60;;;5.10;;
13981;SDS011;7065;50.880;5.502;2023-08-30T07:43:15;5.70;;;5.20;;
13981;SDS011;7065;50.880;5.502;2023-08-30T07:45:41;5.80;;;4.95;;
13981;SDS011;7065;50.880;5.502;2023-08-30T07:48:07;5.20;;;4.70;;
13981;SDS011;7065;50.880;5.502;2023-08-30T07:50:33;5.40;;;4.20;;
13981;SDS011;7065;50.880;5.502;2023-08-30T07:52:58;4.68;;;4.28;;
13981;SDS011;7065;50.880;5.502;2023-08-30T07:55:24;5.13;;;4.32;;
13981;SDS011;7065;50.880;5.502;2023-08-30T07:57:50;4.55;;;4.15;;
13981;SDS011;7065;50.880;5.502;2023-08-30T08:00:15;4.93;;;4.20;;
13981;SDS011;7065;50.880;5.502;2023-08-30T08:02:41;7.57;;;4.40;;
13981;SDS011;7065;50.880;5.502;2023-08-30T08:05:07;5.93;;;4.15;;
13981;SDS011;7065;50.880;5.502;2023-08-30T08:07:33;5.55;;;4.47;;
13981;SDS011;7065;50.880;5.502;2023-08-30T08:10:01;5.40;;;4.25;;
13981;SDS011;7065;50.880;5.502;2023-08-30T08:12:27;6.85;;;4.20;;
13981;SDS011;7065;50.880;5.502;2023-08-30T08:14:53;4.18;;;3.40;;
13981;SDS011;7065;50.880;5.502;2023-08-30T08:17:18;4.90;;;3.70;;
13981;SDS011;7065;50.880;5.502;2023-08-30T08:19:44;4.82;;;3.50;;
13981;SDS011;7065;50.880;5.502;2023-08-30T08:22:10;4.72;;;3.67;;
13981;SDS011;7065;50.880;5.502;2023-08-30T08:24:35;3.50;;;3.20;;
13981;SDS011;7065;50.880;5.502;2023-08-30T08:27:01;4.60;;;3.53;;
13981;SDS011;7065;50.880;5.502;2023-08-30T08:29:27;3.97;;;3.55;;
13981;SDS011;7065;50.880;5.502;2023-08-30T08:31:53;5.13;;;4.07;;
13981;SDS011;7065;50.880;5.502;2023-08-30T08:34:19;5.72;;;3.88;;
13981;SDS011;7065;50.880;5.502;2023-08-30T08:36:45;4.43;;;4.03;;
13981;SDS011;7065;50.880;5.502;2023-08-30T08:39:11;7.47;;;4.35;;
13981;SDS011;7065;50.880;5.502;2023-08-30T08:41:42;4.78;;;4.38;;
13981;SDS011;7065;50.880;5.502;2023-08-30T08:44:09;6.22;;;4.22;;
13981;SDS011;7065;50.880;5.502;2023-08-30T08:46:36;7.18;;;5.18;;
13981;SDS011;7065;50.880;5.502;2023-08-30T08:49:24;9.13;;;6.28;;
13981;SDS011;7065;50.880;5.502;2023-08-30T08:51:53;6.82;;;6.07;;
13981;SDS011;7065;50.880;5.502;2023-08-30T08:54:19;7.88;;;6.50;;
13981;SDS011;7065;50.880;5.502;2023-08-30T08:56:45;9.65;;;7.25;;
13981;SDS011;7065;50.880;5.502;2023-08-30T08:59:11;9.05;;;6.97;;
13981;SDS011;7065;50.880;5.502;2023-08-30T09:01:38;8.18;;;7.38;;
13981;SDS011;7065;50.880;5.502;2023-08-30T09:04:10;9.00;;;8.00;;
13981;SDS011;7065;50.880;5.502;2023-08-30T09:06:36;10.50;;;8.32;;
13981;SDS011;7065;50.880;5.502;2023-08-30T09:09:04;8.07;;;7.30;;
13981;SDS011;7065;50.880;5.502;2023-08-30T09:11:31;9.07;;;8.13;;
13981;SDS011;7065;50.880;5.502;2023-08-30T09:13:57;9.05;;;8.15;;
13981;SDS011;7065;50.880;5.502;2023-08-30T09:16:23;9.45;;;8.55;;
13981;SDS011;7065;50.880;5.502;2023-08-30T09:19:01;9.52;;;8.55;;
13981;SDS011;7065;50.880;5.502;2023-08-30T09:21:28;9.55;;;8.65;;
13981;SDS011;7065;50.880;5.502;2023-08-30T09:26:28;10.88;;;9.18;;
13981;SDS011;7065;50.880;5.502;2023-08-30T09:29:00;11.30;;;9.82;;
13981;SDS011;7065;50.880;5.502;2023-08-30T09:31:36;11.23;;;10.13;;
13981;SDS011;7065;50.880;5.502;2023-08-30T09:34:03;10.85;;;9.85;;
13981;SDS011;7065;50.880;5.502;2023-08-30T09:36:36;11.45;;;10.35;;
13981;SDS011;7065;50.880;5.502;2023-08-30T09:41:35;10.48;;;9.50;;
13981;SDS011;7065;50.880;5.502;2023-08-30T09:44:17;10.77;;;9.60;;
13981;SDS011;7065;50.880;5.502;2023-08-30T09:46:46;10.35;;;9.25;;
13981;SDS011;7065;50.880;5.502;2023-08-30T09:49:11;9.57;;;8.68;;
13981;SDS011;7065;50.880;5.502;2023-08-30T09:51:38;9.60;;;8.70;;
13981;SDS011;7065;50.880;5.502;2023-08-30T09:54:29;9.73;;;8.90;;
13981;SDS011;7065;50.880;5.502;2023-08-30T09:56:56;9.10;;;8.00;;
13981;SDS011;7065;50.880;5.502;2023-08-30T09:59:25;10.93;;;9.07;;
13981;SDS011;7065;50.880;5.502;2023-08-30T10:01:51;10.13;;;9.13;;
13981;SDS011;7065;50.880;5.502;2023-08-30T10:04:18;9.10;;;8.30;;
13981;SDS011;7065;50.880;5.502;2023-08-30T10:06:45;10.55;;;9.27;;
13981;SDS011;7065;50.880;5.502;2023-08-30T10:09:11;9.65;;;8.48;;
13981;SDS011;7065;50.880;5.502;2023-08-30T10:11:39;9.07;;;8.15;;
13981;SDS011;7065;50.880;5.502;2023-08-30T10:14:05;10.15;;;9.13;;
13981;SDS011;7065;50.880;5.502;2023-08-30T10:16:35;9.65;;;8.00;;
13981;SDS011;7065;50.880;5.502;2023-08-30T10:19:09;8.93;;;8.10;;
13981;SDS011;7065;50.880;5.502;2023-08-30T10:21:39;8.93;;;8.15;;
13981;SDS011;7065;50.880;5.502;2023-08-30T10:24:07;8.82;;;8.00;;
13981;SDS011;7065;50.880;5.502;2023-08-30T10:26:36;9.25;;;8.40;;
13981;SDS011;7065;50.880;5.502;2023-08-30T10:29:04;8.60;;;7.55;;
13981;SDS011;7065;50.880;5.502;2023-08-30T10:31:31;8.18;;;7.35;;
13981;SDS011;7065;50.880;5.502;2023-08-30T10:33:56;8.05;;;7.28;;
13981;SDS011;7065;50.880;5.502;2023-08-30T10:36:26;7.47;;;6.78;;
13981;SDS011;7065;50.880;5.502;2023-08-30T10:38:52;8.18;;;7.38;;
13981;SDS011;7065;50.880;5.502;2023-08-30T10:41:20;6.78;;;6.03;;
13981;SDS011;7065;50.880;5.502;2023-08-30T10:43:51;7.25;;;6.55;;
13981;SDS011;7065;50.880;5.502;2023-08-30T10:46:17;6.55;;;5.95;;
13981;SDS011;7065;50.880;5.502;2023-08-30T10:48:54;6.43;;;5.93;;
13981;SDS011;7065;50.880;5.502;2023-08-30T10:51:34;5.97;;;5.47;;
13981;SDS011;7065;50.880;5.502;2023-08-30T10:54:13;5.88;;;5.28;;
13981;SDS011;7065;50.880;5.502;2023-08-30T10:56:55;5.38;;;4.47;;
13981;SDS011;7065;50.880;5.502;2023-08-30T10:59:24;6.00;;;5.40;;
13981;SDS011;7065;50.880;5.502;2023-08-30T11:01:51;5.40;;;4.90;;
13981;SDS011;7065;50.880;5.502;2023-08-30T11:04:17;5.28;;;4.80;;
13981;SDS011;7065;50.880;5.502;2023-08-30T11:06:44;5.15;;;4.75;;
13981;SDS011;7065;50.880;5.502;2023-08-30T11:09:29;5.10;;;4.70;;
13981;SDS011;7065;50.880;5.502;2023-08-30T11:11:55;5.15;;;4.65;;
13981;SDS011;7065;50.880;5.502;2023-08-30T11:14:21;4.22;;;3.92;;
13981;SDS011;7065;50.880;5.502;2023-08-30T11:16:47;4.68;;;4.13;;
13981;SDS011;7065;50.880;5.502;2023-08-30T11:19:13;3.63;;;3.35;;
13981;SDS011;7065;50.880;5.502;2023-08-30T11:21:39;3.28;;;3.05;;
13981;SDS011;7065;50.880;5.502;2023-08-30T11:24:08;4.35;;;3.95;;
13981;SDS011;7065;50.880;5.502;2023-08-30T11:26:34;3.28;;;2.97;;
13981;SDS011;7065;50.880;5.502;2023-08-30T11:29:06;3.85;;;3.47;;
13981;SDS011;7065;50.880;5.502;2023-08-30T11:31:32;4.28;;;3.88;;
13981;SDS011;7065;50.880;5.502;2023-08-30T11:33:59;3.95;;;3.65;;
13981;SDS011;7065;50.880;5.502;2023-08-30T11:36:28;3.85;;;3.55;;
13981;SDS011;7065;50.880;5.502;2023-08-30T11:38:55;3.90;;;3.60;;
13981;SDS011;7065;50.880;5.502;2023-08-30T11:41:22;3.67;;;3.40;;
13981;SDS011;7065;50.880;5.502;2023-08-30T11:43:51;4.20;;;3.90;;
13981;SDS011;7065;50.880;5.502;2023-08-30T11:46:17;4.57;;;4.18;;
13981;SDS011;7065;50.880;5.502;2023-08-30T11:48:43;3.78;;;3.42;;
13981;SDS011;7065;50.880;5.502;2023-08-30T11:51:10;3.70;;;3.47;;
13981;SDS011;7065;50.880;5.502;2023-08-30T11:53:36;3.47;;;3.28;;
13981;SDS011;7065;50.880;5.502;2023-08-30T11:56:03;3.30;;;3.10;;
13981;SDS011;7065;50.880;5.502;2023-08-30T11:58:33;3.53;;;3.22;;
13981;SDS011;7065;50.880;5.502;2023-08-30T12:01:02;3.65;;;3.35;;
13981;SDS011;7065;50.880;5.502;2023-08-30T12:03:30;3.38;;;3.17;;
13981;SDS011;7065;50.880;5.502;2023-08-30T12:05:57;3.70;;;3.40;;
13981;SDS011;7065;50.880;5.502;2023-08-30T12:10:50;4.20;;;3.75;;
13981;SDS011;7065;50.880;5.502;2023-08-30T12:13:34;3.85;;;3.55;;
13981;SDS011;7065;50.880;5.502;2023-08-30T12:16:01;4.25;;;3.95;;
13981;SDS011;7065;50.880;5.502;2023-08-30T12:18:28;3.60;;;3.38;;
13981;SDS011;7065;50.880;5.502;2023-08-30T12:23:24;4.05;;;3.70;;
13981;SDS011;7065;50.880;5.502;2023-08-30T12:28:26;3.47;;;3.17;;
13981;SDS011;7065;50.880;5.502;2023-08-30T12:30:53;3.65;;;3.35;;
13981;SDS011;7065;50.880;5.502;2023-08-30T12:33:19;3.38;;;3.08;;
13981;SDS011;7065;50.880;5.502;2023-08-30T12:35:46;3.72;;;3.38;;
13981;SDS011;7065;50.880;5.502;2023-08-30T12:38:11;3.63;;;2.92;;
13981;SDS011;7065;50.880;5.502;2023-08-30T12:40:37;2.78;;;2.53;;
13981;SDS011;7065;50.880;5.502;2023-08-30T12:43:03;3.35;;;3.15;;
13981;SDS011;7065;50.880;5.502;2023-08-30T12:45:29;3.28;;;2.90;;
13981;SDS011;7065;50.880;5.502;2023-08-30T12:47:55;3.97;;;3.42;;
13981;SDS011;7065;50.880;5.502;2023-08-30T12:50:23;4.10;;;2.95;;
13981;SDS011;7065;50.880;5.502;2023-08-30T12:52:49;3.53;;;3.20;;
13981;SDS011;7065;50.880;5.502;2023-08-30T12:55:15;3.00;;;2.80;;
13981;SDS011;7065;50.880;5.502;2023-08-30T12:57:42;3.50;;;3.20;;
13981;SDS011;7065;50.880;5.502;2023-08-30T13:00:11;3.33;;;2.72;;
13981;SDS011;7065;50.880;5.502;2023-08-30T13:02:40;3.25;;;3.05;;
13981;SDS011;7065;50.880;5.502;2023-08-30T13:05:05;3.40;;;3.10;;
13981;SDS011;7065;50.880;5.502;2023-08-30T13:07:32;3.35;;;3.03;;
13981;SDS011;7065;50.880;5.502;2023-08-30T13:09:57;4.40;;;3.22;;
13981;SDS011;7065;50.880;5.502;2023-08-30T13:12:23;3.58;;;3.28;;
13981;SDS011;7065;50.880;5.502;2023-08-30T13:14:49;4.32;;;3.97;;
13981;SDS011;7065;50.880;5.502;2023-08-30T13:17:15;3.42;;;3.13;;
13981;SDS011;7065;50.880;5.502;2023-08-30T13:19:42;3.80;;;3.42;;
13981;SDS011;7065;50.880;5.502;2023-08-30T13:22:09;4.95;;;3.67;;
13981;SDS011;7065;50.880;5.502;2023-08-30T13:24:35;4.43;;;3.47;;
13981;SDS011;7065;50.880;5.502;2023-08-30T13:27:01;5.35;;;4.38;;
13981;SDS011;7065;50.880;5.502;2023-08-30T13:29:27;5.47;;;4.38;;
13981;SDS011;7065;50.880;5.502;2023-08-30T13:31:54;5.63;;;4.88;;
13981;SDS011;7065;50.880;5.502;2023-08-30T13:34:19;5.07;;;4.68;;
13981;SDS011;7065;50.880;5.502;2023-08-30T13:36:45;4.22;;;3.75;;
13981;SDS011;7065;50.880;5.502;2023-08-30T13:39:11;5.65;;;4.82;;
13981;SDS011;7065;50.880;5.502;2023-08-30T13:41:36;5.68;;;5.10;;
13981;SDS011;7065;50.880;5.502;2023-08-30T13:44:02;6.60;;;5.50;;
13981;SDS011;7065;50.880;5.502;2023-08-30T13:46:29;6.60;;;5.18;;
13981;SDS011;7065;50.880;5.502;2023-08-30T13:48:55;6.00;;;5.20;;
13981;SDS011;7065;50.880;5.502;2023-08-30T13:51:24;6.55;;;4.68;;
13981;SDS011;7065;50.880;5.502;2023-08-30T13:53:51;5.07;;;4.57;;
13981;SDS011;7065;50.880;5.502;2023-08-30T13:56:17;6.43;;;4.68;;
13981;SDS011;7065;50.880;5.502;2023-08-30T13:58:43;10.00;;;5.05;;
13981;SDS011;7065;50.880;5.502;2023-08-30T14:01:10;6.72;;;5.30;;
13981;SDS011;7065;50.880;5.502;2023-08-30T14:03:37;6.07;;;5.00;;
13981;SDS011;7065;50.880;5.502;2023-08-30T14:06:02;8.43;;;5.53;;
13981;SDS011;7065;50.880;5.502;2023-08-30T14:08:28;9.77;;;5.82;;
13981;SDS011;7065;50.880;5.502;2023-08-30T14:10:55;7.03;;;5.57;;
13981;SDS011;7065;50.880;5.502;2023-08-30T14:13:21;7.85;;;5.30;;
13981;SDS011;7065;50.880;5.502;2023-08-30T14:15:47;6.55;;;5.20;;
13981;SDS011;7065;50.880;5.502;2023-08-30T14:18:13;6.57;;;4.68;;
13981;SDS011;7065;50.880;5.502;2023-08-30T14:20:40;5.78;;;4.65;;
13981;SDS011;7065;50.880;5.502;2023-08-30T14:23:06;7.90;;;5.03;;
13981;SDS011;7065;50.880;5.502;2023-08-30T14:25:32;7.88;;;4.03;;
13981;SDS011;7065;50.880;5.502;2023-08-30T14:27:58;6.15;;;3.75;;
13981;SDS011;7065;50.880;5.502;2023-08-30T14:30:24;6.13;;;3.47;;
13981;SDS011;7065;50.880;5.502;2023-08-30T14:32:50;7.30;;;3.13;;
13981;SDS011;7065;50.880;5.502;2023-08-30T14:35:16;4.63;;;3.10;;
13981;SDS011;7065;50.880;5.502;2023-08-30T14:37:42;5.97;;;2.90;;
13981;SDS011;7065;50.880;5.502;2023-08-30T14:40:08;6.75;;;2.90;;
13981;SDS011;7065;50.880;5.502;2023-08-30T14:42:34;7.05;;;3.40;;
13981;SDS011;7065;50.880;5.502;2023-08-30T14:45:00;7.90;;;2.17;;
13981;SDS011;7065;50.880;5.502;2023-08-30T14:47:25;4.95;;;2.30;;
13981;SDS011;7065;50.880;5.502;2023-08-30T14:49:51;7.07;;;2.58;;
13981;SDS011;7065;50.880;5.502;2023-08-30T14:52:17;9.50;;;3.05;;
13981;SDS011;7065;50.880;5.502;2023-08-30T14:54:42;5.40;;;2.15;;
13981;SDS011;7065;50.880;5.502;2023-08-30T14:57:08;4.40;;;2.10;;
13981;SDS011;7065;50.880;5.502;2023-08-30T14:59:34;6.05;;;2.40;;